sensor_id;sensor_type;location;lat;lon;timestamp;P1;durP1;ratioP1;P2;durP2;ratioP2
39308;SDS011;26019;47.510;19.122;2022-10-16T00:00:12;12.45;;;7.47;;
39308;SDS011;26019;47.510;19.122;2022-10-16T00:10:21;14.67;;;7.50;;
39308;SDS011;26019;47.510;19.122;2022-10-16T00:20:23;12.52;;;6.63;;
39308;SDS011;26019;47.510;19.122;2022-10-16T00:30:26;13.57;;;6.50;;
39308;SDS011;26019;47.510;19.122;2022-10-16T00:40:29;12.00;;;6.30;;
39308;SDS011;26019;47.510;19.122;2022-10-16T00:50:32;11.03;;;6.10;;
39308;SDS011;26019;47.510;19.122;2022-10-16T01:00:35;12.23;;;5.95;;
39308;SDS011;26019;47.510;19.122;2022-10-16T01:31:08;10.18;;;6.13;;
39308;SDS011;26019;47.510;19.122;2022-10-16T01:41:14;14.38;;;6.88;;
39308;SDS011;26019;47.510;19.122;2022-10-16T01:51:20;11.45;;;6.97;;
39308;SDS011;26019;47.510;19.122;2022-10-16T02:01:26;16.80;;;8.77;;
39308;SDS011;26019;47.510;19.122;2022-10-16T02:11:31;11.98;;;7.65;;
39308;SDS011;26019;47.510;19.122;2022-10-16T02:21:36;14.32;;;7.78;;
39308;SDS011;26019;47.510;19.122;2022-10-16T02:31:52;12.55;;;7.60;;
39308;SDS011;26019;47.510;19.122;2022-10-16T02:42:00;14.68;;;8.55;;
39308;SDS011;26019;47.510;19.122;2022-10-16T02:52:02;12.77;;;8.23;;
39308;SDS011;26019;47.510;19.122;2022-10-16T03:02:04;11.57;;;8.35;;
39308;SDS011;26019;47.510;19.122;2022-10-16T03:12:06;17.23;;;9.20;;
39308;SDS011;26019;47.510;19.122;2022-10-16T03:22:08;12.98;;;9.07;;
39308;SDS011;26019;47.510;19.122;2022-10-16T03:32:09;17.40;;;10.10;;
39308;SDS011;26019;47.510;19.122;2022-10-16T03:42:11;16.10;;;10.05;;
39308;SDS011;26019;47.510;19.122;2022-10-16T03:52:16;17.13;;;11.45;;
39308;SDS011;26019;47.510;19.122;2022-10-16T04:02:19;14.48;;;10.40;;
39308;SDS011;26019;47.510;19.122;2022-10-16T04:12:21;19.25;;;11.95;;
39308;SDS011;26019;47.510;19.122;2022-10-16T04:22:22;17.50;;;11.15;;
39308;SDS011;26019;47.510;19.122;2022-10-16T04:32:24;21.40;;;12.32;;
39308;SDS011;26019;47.510;19.122;2022-10-16T04:42:26;15.85;;;11.25;;
39308;SDS011;26019;47.510;19.122;2022-10-16T04:52:28;22.02;;;11.63;;
39308;SDS011;26019;47.510;19.122;2022-10-16T05:02:30;15.45;;;10.70;;
39308;SDS011;26019;47.510;19.122;2022-10-16T05:12:33;14.80;;;11.05;;
39308;SDS011;26019;47.510;19.122;2022-10-16T05:22:34;18.92;;;12.20;;
39308;SDS011;26019;47.510;19.122;2022-10-16T05:32:36;20.95;;;12.40;;
39308;SDS011;26019;47.510;19.122;2022-10-16T05:42:46;17.65;;;11.43;;
39308;SDS011;26019;47.510;19.122;2022-10-16T05:52:54;16.50;;;9.88;;
39308;SDS011;26019;47.510;19.122;2022-10-16T06:02:58;13.55;;;8.93;;
39308;SDS011;26019;47.510;19.122;2022-10-16T06:12:59;16.50;;;8.60;;
39308;SDS011;26019;47.510;19.122;2022-10-16T06:23:03;12.93;;;8.95;;
39308;SDS011;26019;47.510;19.122;2022-10-16T06:33:05;17.08;;;9.38;;
39308;SDS011;26019;47.510;19.122;2022-10-16T06:43:08;14.50;;;10.23;;
39308;SDS011;26019;47.510;19.122;2022-10-16T06:53:14;11.30;;;8.02;;
39308;SDS011;26019;47.510;19.122;2022-10-16T07:13:22;16.67;;;8.13;;
39308;SDS011;26019;47.510;19.122;2022-10-16T07:23:25;14.40;;;7.97;;
39308;SDS011;26019;47.510;19.122;2022-10-16T07:43:34;13.90;;;8.48;;
39308;SDS011;26019;47.510;19.122;2022-10-16T07:53:37;12.37;;;7.87;;
39308;SDS011;26019;47.510;19.122;2022-10-16T08:03:41;10.70;;;7.73;;
39308;SDS011;26019;47.510;19.122;2022-10-16T08:13:46;11.00;;;7.78;;
39308;SDS011;26019;47.510;19.122;2022-10-16T08:23:49;12.15;;;7.40;;
39308;SDS011;26019;47.510;19.122;2022-10-16T08:33:58;11.70;;;6.93;;
39308;SDS011;26019;47.510;19.122;2022-10-16T08:54:41;11.27;;;6.97;;
39308;SDS011;26019;47.510;19.122;2022-10-16T09:25:26;9.60;;;6.35;;
39308;SDS011;26019;47.510;19.122;2022-10-16T09:56:01;6.25;;;5.65;;
39308;SDS011;26019;47.510;19.122;2022-10-16T10:06:28;10.18;;;6.60;;
39308;SDS011;26019;47.510;19.122;2022-10-16T10:16:37;10.30;;;6.85;;
39308;SDS011;26019;47.510;19.122;2022-10-16T10:26:41;10.27;;;5.55;;
39308;SDS011;26019;47.510;19.122;2022-10-16T10:47:56;9.68;;;6.88;;
39308;SDS011;26019;47.510;19.122;2022-10-16T11:08:41;7.43;;;4.72;;
39308;SDS011;26019;47.510;19.122;2022-10-16T11:29:14;7.47;;;4.50;;
39308;SDS011;26019;47.510;19.122;2022-10-16T11:49:30;5.70;;;4.47;;
39308;SDS011;26019;47.510;19.122;2022-10-16T11:59:44;5.47;;;4.00;;
39308;SDS011;26019;47.510;19.122;2022-10-16T12:09:49;5.70;;;3.70;;
39308;SDS011;26019;47.510;19.122;2022-10-16T12:30:19;6.00;;;3.97;;
39308;SDS011;26019;47.510;19.122;2022-10-16T12:40:32;4.95;;;4.20;;
39308;SDS011;26019;47.510;19.122;2022-10-16T12:50:37;5.97;;;3.95;;
39308;SDS011;26019;47.510;19.122;2022-10-16T13:21:31;6.32;;;4.07;;
39308;SDS011;26019;47.510;19.122;2022-10-16T13:31:40;9.35;;;3.45;;
39308;SDS011;26019;47.510;19.122;2022-10-16T13:41:41;6.30;;;3.28;;
39308;SDS011;26019;47.510;19.122;2022-10-16T13:51:57;4.43;;;3.10;;
39308;SDS011;26019;47.510;19.122;2022-10-16T14:02:29;6.72;;;3.70;;
39308;SDS011;26019;47.510;19.122;2022-10-16T14:12:39;8.27;;;3.17;;
39308;SDS011;26019;47.510;19.122;2022-10-16T14:22:41;5.07;;;3.80;;
39308;SDS011;26019;47.510;19.122;2022-10-16T14:33:00;9.18;;;3.53;;
39308;SDS011;26019;47.510;19.122;2022-10-16T14:43:04;4.57;;;3.42;;
39308;SDS011;26019;47.510;19.122;2022-10-16T14:53:11;9.95;;;3.70;;
39308;SDS011;26019;47.510;19.122;2022-10-16T15:03:22;6.82;;;3.40;;
39308;SDS011;26019;47.510;19.122;2022-10-16T15:13:53;8.90;;;4.88;;
39308;SDS011;26019;47.510;19.122;2022-10-16T15:24:18;10.73;;;5.18;;
39308;SDS011;26019;47.510;19.122;2022-10-16T15:34:31;8.10;;;5.10;;
39308;SDS011;26019;47.510;19.122;2022-10-16T15:44:43;10.02;;;4.82;;
39308;SDS011;26019;47.510;19.122;2022-10-16T15:54:49;9.05;;;4.93;;
39308;SDS011;26019;47.510;19.122;2022-10-16T16:04:55;12.65;;;4.22;;
39308;SDS011;26019;47.510;19.122;2022-10-16T16:14:59;12.20;;;5.85;;
39308;SDS011;26019;47.510;19.122;2022-10-16T16:25:06;13.90;;;6.50;;
39308;SDS011;26019;47.510;19.122;2022-10-16T16:35:08;10.70;;;5.20;;
39308;SDS011;26019;47.510;19.122;2022-10-16T16:45:10;14.93;;;5.80;;
39308;SDS011;26019;47.510;19.122;2022-10-16T16:55:11;10.73;;;6.43;;
39308;SDS011;26019;47.510;19.122;2022-10-16T17:05:13;13.60;;;9.47;;
39308;SDS011;26019;47.510;19.122;2022-10-16T17:15:15;18.40;;;10.77;;
39308;SDS011;26019;47.510;19.122;2022-10-16T17:25:17;20.43;;;11.07;;
39308;SDS011;26019;47.510;19.122;2022-10-16T17:45:45;22.88;;;11.80;;
39308;SDS011;26019;47.510;19.122;2022-10-16T17:55:48;23.85;;;11.68;;
39308;SDS011;26019;47.510;19.122;2022-10-16T18:05:54;25.13;;;13.80;;
39308;SDS011;26019;47.510;19.122;2022-10-16T18:16:07;21.80;;;12.52;;
39308;SDS011;26019;47.510;19.122;2022-10-16T18:36:25;27.05;;;14.68;;
39308;SDS011;26019;47.510;19.122;2022-10-16T18:46:38;23.73;;;15.18;;
39308;SDS011;26019;47.510;19.122;2022-10-16T18:56:46;25.13;;;14.95;;
39308;SDS011;26019;47.510;19.122;2022-10-16T19:06:54;24.67;;;16.40;;
39308;SDS011;26019;47.510;19.122;2022-10-16T19:16:57;26.15;;;18.45;;
39308;SDS011;26019;47.510;19.122;2022-10-16T19:27:01;30.70;;;19.27;;
39308;SDS011;26019;47.510;19.122;2022-10-16T19:37:03;27.80;;;17.60;;
39308;SDS011;26019;47.510;19.122;2022-10-16T19:47:15;38.45;;;19.08;;
39308;SDS011;26019;47.510;19.122;2022-10-16T19:57:23;32.03;;;18.90;;
39308;SDS011;26019;47.510;19.122;2022-10-16T20:17:31;31.27;;;17.10;;
39308;SDS011;26019;47.510;19.122;2022-10-16T20:27:33;31.17;;;18.67;;
39308;SDS011;26019;47.510;19.122;2022-10-16T20:37:35;27.17;;;18.42;;
39308;SDS011;26019;47.510;19.122;2022-10-16T20:47:36;29.80;;;17.73;;
39308;SDS011;26019;47.510;19.122;2022-10-16T20:57:38;28.70;;;17.98;;
39308;SDS011;26019;47.510;19.122;2022-10-16T21:17:43;26.75;;;16.05;;
39308;SDS011;26019;47.510;19.122;2022-10-16T21:27:45;26.60;;;17.40;;
39308;SDS011;26019;47.510;19.122;2022-10-16T21:37:48;27.05;;;15.48;;
39308;SDS011;26019;47.510;19.122;2022-10-16T21:47:50;25.27;;;16.70;;
39308;SDS011;26019;47.510;19.122;2022-10-16T21:57:52;25.50;;;17.23;;
39308;SDS011;26019;47.510;19.122;2022-10-16T22:07:53;28.00;;;18.33;;
39308;SDS011;26019;47.510;19.122;2022-10-16T22:17:55;27.65;;;18.20;;
39308;SDS011;26019;47.510;19.122;2022-10-16T22:27:57;29.25;;;17.63;;
39308;SDS011;26019;47.510;19.122;2022-10-16T22:37:58;32.17;;;18.70;;
39308;SDS011;26019;47.510;19.122;2022-10-16T22:48:00;29.83;;;18.13;;
39308;SDS011;26019;47.510;19.122;2022-10-16T22:58:09;32.00;;;18.47;;
39308;SDS011;26019;47.510;19.122;2022-10-16T23:08:11;31.15;;;20.00;;
39308;SDS011;26019;47.510;19.122;2022-10-16T23:18:13;30.63;;;20.20;;
39308;SDS011;26019;47.510;19.122;2022-10-16T23:28:14;32.72;;;20.63;;
39308;SDS011;26019;47.510;19.122;2022-10-16T23:38:16;33.90;;;20.77;;
39308;SDS011;26019;47.510;19.122;2022-10-16T23:48:18;33.03;;;21.70;;
39308;SDS011;26019;47.510;19.122;2022-10-16T23:58:27;32.40;;;21.55;;
